sensor_id;sensor_type;location;lat;lon;timestamp;P1;durP1;ratioP1;P2;durP2;ratioP2
9900;SDS011;4989;48.772;9.154;2022-11-23T00:02:41;2.47;;;1.53;;
9900;SDS011;4989;48.772;9.154;2022-11-23T00:07:47;4.97;;;1.30;;
9900;SDS011;4989;48.772;9.154;2022-11-23T00:12:49;3.90;;;1.57;;
9900;SDS011;4989;48.772;9.154;2022-11-23T00:17:52;2.00;;;1.47;;
9900;SDS011;4989;48.772;9.154;2022-11-23T00:22:55;2.73;;;1.50;;
9900;SDS011;4989;48.772;9.154;2022-11-23T00:27:57;3.60;;;1.63;;
9900;SDS011;4989;48.772;9.154;2022-11-23T00:32:59;4.23;;;2.23;;
9900;SDS011;4989;48.772;9.154;2022-11-23T00:38:04;2.87;;;1.67;;
9900;SDS011;4989;48.772;9.154;2022-11-23T00:43:06;4.93;;;1.73;;
9900;SDS011;4989;48.772;9.154;2022-11-23T00:48:09;1.40;;;1.30;;
9900;SDS011;4989;48.772;9.154;2022-11-23T00:53:11;2.97;;;1.60;;
9900;SDS011;4989;48.772;9.154;2022-11-23T00:58:14;3.43;;;1.37;;
9900;SDS011;4989;48.772;9.154;2022-11-23T01:03:16;3.03;;;1.20;;
9900;SDS011;4989;48.772;9.154;2022-11-23T01:08:19;4.80;;;1.30;;
9900;SDS011;4989;48.772;9.154;2022-11-23T01:13:21;2.90;;;1.13;;
9900;SDS011;4989;48.772;9.154;2022-11-23T01:18:24;1.80;;;0.90;;
9900;SDS011;4989;48.772;9.154;2022-11-23T01:23:28;2.10;;;0.90;;
9900;SDS011;4989;48.772;9.154;2022-11-23T01:28:30;1.97;;;1.17;;
9900;SDS011;4989;48.772;9.154;2022-11-23T01:33:34;2.03;;;1.10;;
9900;SDS011;4989;48.772;9.154;2022-11-23T01:38:37;3.20;;;1.30;;
9900;SDS011;4989;48.772;9.154;2022-11-23T01:43:40;6.40;;;1.37;;
9900;SDS011;4989;48.772;9.154;2022-11-23T01:54:10;1.83;;;0.73;;
9900;SDS011;4989;48.772;9.154;2022-11-23T01:59:17;1.27;;;0.90;;
9900;SDS011;4989;48.772;9.154;2022-11-23T02:04:23;2.03;;;1.00;;
9900;SDS011;4989;48.772;9.154;2022-11-23T02:09:33;1.57;;;1.20;;
9900;SDS011;4989;48.772;9.154;2022-11-23T02:14:38;1.87;;;0.90;;
9900;SDS011;4989;48.772;9.154;2022-11-23T02:25:24;0.90;;;0.90;;
9900;SDS011;4989;48.772;9.154;2022-11-23T02:30:40;3.20;;;0.90;;
9900;SDS011;4989;48.772;9.154;2022-11-23T02:35:48;2.90;;;1.10;;
9900;SDS011;4989;48.772;9.154;2022-11-23T02:40:58;1.10;;;0.73;;
9900;SDS011;4989;48.772;9.154;2022-11-23T02:46:01;3.20;;;0.90;;
9900;SDS011;4989;48.772;9.154;2022-11-23T02:51:07;5.37;;;1.20;;
9900;SDS011;4989;48.772;9.154;2022-11-23T02:56:10;1.00;;;0.87;;
9900;SDS011;4989;48.772;9.154;2022-11-23T03:01:12;2.23;;;1.00;;
9900;SDS011;4989;48.772;9.154;2022-11-23T03:06:15;3.57;;;1.20;;
9900;SDS011;4989;48.772;9.154;2022-11-23T03:11:18;3.53;;;0.90;;
9900;SDS011;4989;48.772;9.154;2022-11-23T03:16:23;1.83;;;0.90;;
9900;SDS011;4989;48.772;9.154;2022-11-23T03:21:27;2.63;;;1.00;;
9900;SDS011;4989;48.772;9.154;2022-11-23T03:26:29;2.40;;;1.00;;
9900;SDS011;4989;48.772;9.154;2022-11-23T03:31:41;2.67;;;1.10;;
9900;SDS011;4989;48.772;9.154;2022-11-23T03:36:46;1.63;;;1.00;;
9900;SDS011;4989;48.772;9.154;2022-11-23T03:41:49;2.23;;;1.10;;
9900;SDS011;4989;48.772;9.154;2022-11-23T03:46:55;2.87;;;1.20;;
9900;SDS011;4989;48.772;9.154;2022-11-23T03:51:58;3.60;;;1.20;;
9900;SDS011;4989;48.772;9.154;2022-11-23T03:57:01;3.27;;;1.10;;
9900;SDS011;4989;48.772;9.154;2022-11-23T04:02:05;0.97;;;0.97;;
9900;SDS011;4989;48.772;9.154;2022-11-23T04:07:15;3.37;;;1.27;;
9900;SDS011;4989;48.772;9.154;2022-11-23T04:12:23;2.20;;;1.10;;
9900;SDS011;4989;48.772;9.154;2022-11-23T04:17:26;2.77;;;1.03;;
9900;SDS011;4989;48.772;9.154;2022-11-23T04:22:29;1.30;;;1.20;;
9900;SDS011;4989;48.772;9.154;2022-11-23T04:27:32;1.57;;;1.40;;
9900;SDS011;4989;48.772;9.154;2022-11-23T04:32:36;1.87;;;1.40;;
9900;SDS011;4989;48.772;9.154;2022-11-23T04:37:39;2.37;;;1.03;;
9900;SDS011;4989;48.772;9.154;2022-11-23T04:42:44;2.43;;;1.03;;
9900;SDS011;4989;48.772;9.154;2022-11-23T04:47:47;1.80;;;0.97;;
9900;SDS011;4989;48.772;9.154;2022-11-23T04:52:50;2.53;;;1.40;;
9900;SDS011;4989;48.772;9.154;2022-11-23T04:57:58;3.50;;;1.00;;
9900;SDS011;4989;48.772;9.154;2022-11-23T05:03:04;1.13;;;0.90;;
9900;SDS011;4989;48.772;9.154;2022-11-23T05:08:09;2.43;;;1.10;;
9900;SDS011;4989;48.772;9.154;2022-11-23T05:13:32;4.30;;;1.20;;
9900;SDS011;4989;48.772;9.154;2022-11-23T05:18:36;2.30;;;1.10;;
9900;SDS011;4989;48.772;9.154;2022-11-23T05:23:38;1.77;;;1.10;;
9900;SDS011;4989;48.772;9.154;2022-11-23T05:28:41;1.67;;;1.10;;
9900;SDS011;4989;48.772;9.154;2022-11-23T05:33:47;1.77;;;0.90;;
9900;SDS011;4989;48.772;9.154;2022-11-23T05:38:57;3.40;;;1.17;;
9900;SDS011;4989;48.772;9.154;2022-11-23T05:44:04;2.17;;;1.67;;
9900;SDS011;4989;48.772;9.154;2022-11-23T05:49:08;1.60;;;1.13;;
9900;SDS011;4989;48.772;9.154;2022-11-23T05:54:12;1.93;;;0.90;;
9900;SDS011;4989;48.772;9.154;2022-11-23T05:59:20;2.50;;;1.10;;
9900;SDS011;4989;48.772;9.154;2022-11-23T06:04:29;1.23;;;1.03;;
9900;SDS011;4989;48.772;9.154;2022-11-23T06:09:33;1.90;;;1.10;;
9900;SDS011;4989;48.772;9.154;2022-11-23T06:14:40;2.30;;;1.27;;
9900;SDS011;4989;48.772;9.154;2022-11-23T06:19:44;2.27;;;1.17;;
9900;SDS011;4989;48.772;9.154;2022-11-23T06:24:46;2.43;;;1.03;;
9900;SDS011;4989;48.772;9.154;2022-11-23T06:30:10;2.23;;;1.20;;
9900;SDS011;4989;48.772;9.154;2022-11-23T06:35:14;1.63;;;1.07;;
9900;SDS011;4989;48.772;9.154;2022-11-23T06:40:18;1.53;;;1.20;;
9900;SDS011;4989;48.772;9.154;2022-11-23T06:45:23;2.87;;;1.30;;
9900;SDS011;4989;48.772;9.154;2022-11-23T06:50:34;3.90;;;1.00;;
9900;SDS011;4989;48.772;9.154;2022-11-23T06:55:37;2.87;;;1.70;;
9900;SDS011;4989;48.772;9.154;2022-11-23T07:00:42;2.27;;;1.30;;
9900;SDS011;4989;48.772;9.154;2022-11-23T07:05:46;1.80;;;1.20;;
9900;SDS011;4989;48.772;9.154;2022-11-23T07:10:59;2.03;;;1.43;;
9900;SDS011;4989;48.772;9.154;2022-11-23T07:16:03;2.53;;;1.40;;
9900;SDS011;4989;48.772;9.154;2022-11-23T07:21:06;4.13;;;1.23;;
9900;SDS011;4989;48.772;9.154;2022-11-23T07:26:09;2.70;;;1.13;;
9900;SDS011;4989;48.772;9.154;2022-11-23T07:31:14;4.17;;;1.40;;
9900;SDS011;4989;48.772;9.154;2022-11-23T07:36:17;3.40;;;1.30;;
9900;SDS011;4989;48.772;9.154;2022-11-23T07:41:20;2.43;;;1.50;;
9900;SDS011;4989;48.772;9.154;2022-11-23T07:46:38;2.03;;;1.20;;
9900;SDS011;4989;48.772;9.154;2022-11-23T07:51:41;1.63;;;1.40;;
9900;SDS011;4989;48.772;9.154;2022-11-23T07:56:43;3.50;;;1.17;;
9900;SDS011;4989;48.772;9.154;2022-11-23T08:01:46;3.33;;;1.10;;
9900;SDS011;4989;48.772;9.154;2022-11-23T08:06:54;3.63;;;1.50;;
9900;SDS011;4989;48.772;9.154;2022-11-23T08:11:57;5.13;;;1.67;;
9900;SDS011;4989;48.772;9.154;2022-11-23T08:16:59;3.07;;;1.50;;
9900;SDS011;4989;48.772;9.154;2022-11-23T08:22:02;4.70;;;1.27;;
9900;SDS011;4989;48.772;9.154;2022-11-23T08:27:06;4.03;;;1.43;;
9900;SDS011;4989;48.772;9.154;2022-11-23T08:32:10;5.00;;;1.30;;
9900;SDS011;4989;48.772;9.154;2022-11-23T08:37:12;1.93;;;1.27;;
9900;SDS011;4989;48.772;9.154;2022-11-23T08:42:15;2.50;;;1.37;;
9900;SDS011;4989;48.772;9.154;2022-11-23T08:47:18;2.93;;;1.07;;
9900;SDS011;4989;48.772;9.154;2022-11-23T08:52:23;3.63;;;1.60;;
9900;SDS011;4989;48.772;9.154;2022-11-23T08:57:27;2.93;;;2.03;;
9900;SDS011;4989;48.772;9.154;2022-11-23T09:02:29;2.50;;;1.23;;
9900;SDS011;4989;48.772;9.154;2022-11-23T09:07:32;1.80;;;1.20;;
9900;SDS011;4989;48.772;9.154;2022-11-23T09:12:35;2.40;;;1.30;;
9900;SDS011;4989;48.772;9.154;2022-11-23T09:17:37;2.20;;;1.03;;
9900;SDS011;4989;48.772;9.154;2022-11-23T09:22:40;5.30;;;1.27;;
9900;SDS011;4989;48.772;9.154;2022-11-23T09:27:42;1.40;;;1.30;;
9900;SDS011;4989;48.772;9.154;2022-11-23T09:32:45;3.17;;;1.37;;
9900;SDS011;4989;48.772;9.154;2022-11-23T09:37:53;2.33;;;1.23;;
9900;SDS011;4989;48.772;9.154;2022-11-23T09:48:19;2.50;;;1.30;;
9900;SDS011;4989;48.772;9.154;2022-11-23T09:59:37;3.03;;;0.90;;
9900;SDS011;4989;48.772;9.154;2022-11-23T10:04:42;1.93;;;1.07;;
9900;SDS011;4989;48.772;9.154;2022-11-23T10:15:20;3.30;;;1.50;;
9900;SDS011;4989;48.772;9.154;2022-11-23T10:25:39;2.00;;;1.20;;
9900;SDS011;4989;48.772;9.154;2022-11-23T10:31:02;3.07;;;1.33;;
9900;SDS011;4989;48.772;9.154;2022-11-23T11:42:29;2.77;;;1.47;;
9900;SDS011;4989;48.772;9.154;2022-11-23T11:47:36;3.27;;;1.30;;
9900;SDS011;4989;48.772;9.154;2022-11-23T11:52:44;1.70;;;1.60;;
9900;SDS011;4989;48.772;9.154;2022-11-23T11:57:55;3.53;;;1.50;;
9900;SDS011;4989;48.772;9.154;2022-11-23T12:13:58;2.40;;;1.90;;
9900;SDS011;4989;48.772;9.154;2022-11-23T12:24:29;2.70;;;1.53;;
9900;SDS011;4989;48.772;9.154;2022-11-23T12:29:40;3.67;;;1.50;;
9900;SDS011;4989;48.772;9.154;2022-11-23T12:45:58;2.00;;;1.20;;
9900;SDS011;4989;48.772;9.154;2022-11-23T13:01:48;3.97;;;1.00;;
9900;SDS011;4989;48.772;9.154;2022-11-23T13:12:36;3.27;;;0.93;;
9900;SDS011;4989;48.772;9.154;2022-11-23T13:22:58;1.93;;;0.90;;
9900;SDS011;4989;48.772;9.154;2022-11-23T13:28:25;3.57;;;1.20;;
9900;SDS011;4989;48.772;9.154;2022-11-23T13:33:35;3.47;;;0.87;;
9900;SDS011;4989;48.772;9.154;2022-11-23T13:38:39;2.53;;;0.90;;
9900;SDS011;4989;48.772;9.154;2022-11-23T13:43:43;2.53;;;0.97;;
9900;SDS011;4989;48.772;9.154;2022-11-23T13:48:47;1.97;;;0.90;;
9900;SDS011;4989;48.772;9.154;2022-11-23T13:54:18;1.30;;;0.90;;
9900;SDS011;4989;48.772;9.154;2022-11-23T14:04:29;1.10;;;0.90;;
9900;SDS011;4989;48.772;9.154;2022-11-23T14:31:07;2.97;;;0.93;;
9900;SDS011;4989;48.772;9.154;2022-11-23T14:41:37;1.80;;;1.00;;
9900;SDS011;4989;48.772;9.154;2022-11-23T14:46:58;2.53;;;0.97;;
9900;SDS011;4989;48.772;9.154;2022-11-23T14:52:04;2.43;;;0.83;;
9900;SDS011;4989;48.772;9.154;2022-11-23T14:57:10;2.40;;;1.10;;
9900;SDS011;4989;48.772;9.154;2022-11-23T15:02:16;1.50;;;1.10;;
9900;SDS011;4989;48.772;9.154;2022-11-23T15:12:46;2.10;;;1.00;;
9900;SDS011;4989;48.772;9.154;2022-11-23T15:17:55;2.17;;;0.90;;
9900;SDS011;4989;48.772;9.154;2022-11-23T15:23:00;1.50;;;0.97;;
9900;SDS011;4989;48.772;9.154;2022-11-23T15:28:10;1.60;;;1.23;;
9900;SDS011;4989;48.772;9.154;2022-11-23T15:33:18;1.93;;;1.30;;
9900;SDS011;4989;48.772;9.154;2022-11-23T15:38:23;1.40;;;1.00;;
9900;SDS011;4989;48.772;9.154;2022-11-23T15:43:25;4.20;;;1.30;;
9900;SDS011;4989;48.772;9.154;2022-11-23T15:48:32;1.87;;;1.27;;
9900;SDS011;4989;48.772;9.154;2022-11-23T15:53:48;2.50;;;1.13;;
9900;SDS011;4989;48.772;9.154;2022-11-23T15:58:53;2.53;;;1.07;;
9900;SDS011;4989;48.772;9.154;2022-11-23T16:03:57;1.10;;;1.00;;
9900;SDS011;4989;48.772;9.154;2022-11-23T16:09:02;1.43;;;1.10;;
9900;SDS011;4989;48.772;9.154;2022-11-23T16:14:45;1.80;;;1.17;;
9900;SDS011;4989;48.772;9.154;2022-11-23T16:19:49;3.93;;;1.20;;
9900;SDS011;4989;48.772;9.154;2022-11-23T16:25:00;1.73;;;1.30;;
9900;SDS011;4989;48.772;9.154;2022-11-23T16:30:22;1.50;;;1.27;;
9900;SDS011;4989;48.772;9.154;2022-11-23T16:35:26;1.50;;;1.30;;
9900;SDS011;4989;48.772;9.154;2022-11-23T16:40:29;2.53;;;1.60;;
9900;SDS011;4989;48.772;9.154;2022-11-23T16:45:32;1.87;;;1.30;;
9900;SDS011;4989;48.772;9.154;2022-11-23T16:50:35;2.20;;;1.40;;
9900;SDS011;4989;48.772;9.154;2022-11-23T16:55:37;3.47;;;1.50;;
9900;SDS011;4989;48.772;9.154;2022-11-23T17:00:44;1.53;;;1.43;;
9900;SDS011;4989;48.772;9.154;2022-11-23T17:05:49;2.00;;;1.40;;
9900;SDS011;4989;48.772;9.154;2022-11-23T17:10:51;1.43;;;1.30;;
9900;SDS011;4989;48.772;9.154;2022-11-23T17:15:54;1.70;;;1.60;;
9900;SDS011;4989;48.772;9.154;2022-11-23T17:20:57;2.17;;;1.33;;
9900;SDS011;4989;48.772;9.154;2022-11-23T17:26:00;2.60;;;1.40;;
9900;SDS011;4989;48.772;9.154;2022-11-23T17:31:04;1.80;;;1.50;;
9900;SDS011;4989;48.772;9.154;2022-11-23T17:36:07;2.17;;;1.30;;
9900;SDS011;4989;48.772;9.154;2022-11-23T17:41:10;1.77;;;1.30;;
9900;SDS011;4989;48.772;9.154;2022-11-23T17:46:20;2.43;;;1.33;;
9900;SDS011;4989;48.772;9.154;2022-11-23T17:51:24;3.10;;;1.20;;
9900;SDS011;4989;48.772;9.154;2022-11-23T17:56:28;2.17;;;1.50;;
9900;SDS011;4989;48.772;9.154;2022-11-23T18:01:31;1.80;;;1.40;;
9900;SDS011;4989;48.772;9.154;2022-11-23T18:06:34;3.10;;;1.70;;
9900;SDS011;4989;48.772;9.154;2022-11-23T18:11:36;2.90;;;1.73;;
9900;SDS011;4989;48.772;9.154;2022-11-23T18:16:39;1.70;;;1.50;;
9900;SDS011;4989;48.772;9.154;2022-11-23T18:21:41;2.47;;;1.50;;
9900;SDS011;4989;48.772;9.154;2022-11-23T18:26:44;3.80;;;1.77;;
9900;SDS011;4989;48.772;9.154;2022-11-23T18:31:46;1.53;;;1.30;;
9900;SDS011;4989;48.772;9.154;2022-11-23T18:36:49;2.17;;;1.63;;
9900;SDS011;4989;48.772;9.154;2022-11-23T18:41:51;2.83;;;1.50;;
9900;SDS011;4989;48.772;9.154;2022-11-23T18:46:54;2.17;;;1.90;;
9900;SDS011;4989;48.772;9.154;2022-11-23T18:51:57;5.17;;;1.93;;
9900;SDS011;4989;48.772;9.154;2022-11-23T18:56:59;2.83;;;2.10;;
9900;SDS011;4989;48.772;9.154;2022-11-23T19:02:02;2.33;;;2.13;;
9900;SDS011;4989;48.772;9.154;2022-11-23T19:07:05;2.17;;;1.87;;
9900;SDS011;4989;48.772;9.154;2022-11-23T19:12:07;3.33;;;1.83;;
9900;SDS011;4989;48.772;9.154;2022-11-23T19:17:10;2.13;;;1.70;;
9900;SDS011;4989;48.772;9.154;2022-11-23T19:22:12;2.00;;;1.80;;
9900;SDS011;4989;48.772;9.154;2022-11-23T19:27:15;4.00;;;2.33;;
9900;SDS011;4989;48.772;9.154;2022-11-23T19:32:17;2.97;;;2.07;;
9900;SDS011;4989;48.772;9.154;2022-11-23T19:37:20;2.00;;;1.80;;
9900;SDS011;4989;48.772;9.154;2022-11-23T19:42:23;2.50;;;2.20;;
9900;SDS011;4989;48.772;9.154;2022-11-23T19:47:25;2.67;;;2.17;;
9900;SDS011;4989;48.772;9.154;2022-11-23T19:52:31;2.40;;;2.03;;
9900;SDS011;4989;48.772;9.154;2022-11-23T19:57:54;2.23;;;1.90;;
9900;SDS011;4989;48.772;9.154;2022-11-23T20:02:59;2.97;;;1.93;;
9900;SDS011;4989;48.772;9.154;2022-11-23T20:08:02;7.00;;;4.57;;
9900;SDS011;4989;48.772;9.154;2022-11-23T20:13:05;4.10;;;2.70;;
9900;SDS011;4989;48.772;9.154;2022-11-23T20:18:07;2.33;;;1.90;;
9900;SDS011;4989;48.772;9.154;2022-11-23T20:23:10;2.10;;;1.90;;
9900;SDS011;4989;48.772;9.154;2022-11-23T20:28:15;3.97;;;2.00;;
9900;SDS011;4989;48.772;9.154;2022-11-23T20:33:20;3.57;;;1.73;;
9900;SDS011;4989;48.772;9.154;2022-11-23T20:38:23;1.80;;;1.40;;
9900;SDS011;4989;48.772;9.154;2022-11-23T20:43:26;2.90;;;1.40;;
9900;SDS011;4989;48.772;9.154;2022-11-23T20:48:28;2.30;;;1.60;;
9900;SDS011;4989;48.772;9.154;2022-11-23T20:53:32;3.93;;;1.50;;
9900;SDS011;4989;48.772;9.154;2022-11-23T20:58:35;2.33;;;1.40;;
9900;SDS011;4989;48.772;9.154;2022-11-23T21:03:38;1.43;;;1.33;;
9900;SDS011;4989;48.772;9.154;2022-11-23T21:08:42;4.80;;;1.60;;
9900;SDS011;4989;48.772;9.154;2022-11-23T21:13:46;3.70;;;1.37;;
9900;SDS011;4989;48.772;9.154;2022-11-23T21:19:07;5.73;;;1.70;;
9900;SDS011;4989;48.772;9.154;2022-11-23T21:24:10;3.70;;;1.60;;
9900;SDS011;4989;48.772;9.154;2022-11-23T21:29:14;6.67;;;1.23;;
9900;SDS011;4989;48.772;9.154;2022-11-23T21:39:21;4.00;;;1.40;;
9900;SDS011;4989;48.772;9.154;2022-11-23T21:44:25;7.83;;;1.40;;
9900;SDS011;4989;48.772;9.154;2022-11-23T21:49:27;5.70;;;1.27;;
9900;SDS011;4989;48.772;9.154;2022-11-23T21:54:30;3.17;;;1.40;;
9900;SDS011;4989;48.772;9.154;2022-11-23T21:59:32;4.03;;;1.00;;
9900;SDS011;4989;48.772;9.154;2022-11-23T22:04:35;7.10;;;1.83;;
9900;SDS011;4989;48.772;9.154;2022-11-23T22:09:38;5.03;;;1.47;;
9900;SDS011;4989;48.772;9.154;2022-11-23T22:14:40;5.23;;;1.70;;
9900;SDS011;4989;48.772;9.154;2022-11-23T22:19:43;6.50;;;1.53;;
9900;SDS011;4989;48.772;9.154;2022-11-23T22:24:45;3.97;;;1.83;;
9900;SDS011;4989;48.772;9.154;2022-11-23T22:29:47;6.17;;;1.67;;
9900;SDS011;4989;48.772;9.154;2022-11-23T22:34:50;5.80;;;1.10;;
9900;SDS011;4989;48.772;9.154;2022-11-23T22:39:53;5.00;;;1.80;;
9900;SDS011;4989;48.772;9.154;2022-11-23T22:44:55;2.93;;;1.57;;
9900;SDS011;4989;48.772;9.154;2022-11-23T22:49:59;5.73;;;1.53;;
9900;SDS011;4989;48.772;9.154;2022-11-23T22:55:01;7.47;;;2.00;;
9900;SDS011;4989;48.772;9.154;2022-11-23T23:00:05;6.33;;;1.77;;
9900;SDS011;4989;48.772;9.154;2022-11-23T23:05:11;2.33;;;1.40;;
9900;SDS011;4989;48.772;9.154;2022-11-23T23:10:13;3.33;;;1.40;;
9900;SDS011;4989;48.772;9.154;2022-11-23T23:15:16;2.10;;;1.10;;
9900;SDS011;4989;48.772;9.154;2022-11-23T23:20:18;3.40;;;1.40;;
9900;SDS011;4989;48.772;9.154;2022-11-23T23:25:21;4.83;;;1.70;;
9900;SDS011;4989;48.772;9.154;2022-11-23T23:30:23;2.60;;;1.27;;
9900;SDS011;4989;48.772;9.154;2022-11-23T23:35:26;5.10;;;1.70;;
9900;SDS011;4989;48.772;9.154;2022-11-23T23:40:32;5.30;;;1.60;;
9900;SDS011;4989;48.772;9.154;2022-11-23T23:45:34;6.10;;;2.00;;
9900;SDS011;4989;48.772;9.154;2022-11-23T23:50:36;2.63;;;1.20;;
9900;SDS011;4989;48.772;9.154;2022-11-23T23:55:39;8.10;;;1.80;;
